Time;durP1;ratioP1;P1;durP2;ratioP2;P2;SDS_P1;SDS_P2;PMS_P1;PMS_P2;Temp;Humidity;BMP_temperature;BMP_pressure;BME280_temperature;BME280_humidity;BME280_pressure;Samples;Min_cycle;Max_cycle;Signal;HPM_P1;HPM_P2
2022/03/30 00:01:53;;;;;;;;;;;;;;;11.62;57.87;96821.66;5007616;28;19940;-78
2022/03/30 00:04:22;;;;;;;;;;;;;;;11.72;57.25;96816.50;5020741;28;19926;-78
2022/03/30 00:06:51;;;;;;;;;;;;;;;11.52;58.30;96812.03;5003624;28;20388;-79
2022/03/30 00:09:20;;;;;;;;;;;;;;;11.54;58.43;96813.25;5033444;28;19995;-78
2022/03/30 00:11:53;;;;;;;;;;;;;;;11.43;58.66;96803.19;5035239;28;19925;-78
2022/03/30 00:14:23;;;;;;;;;;;;;;;11.43;58.85;96809.44;5024065;28;20411;-78
2022/03/30 00:16:52;;;;;;;;;;;;;;;11.40;59.34;96796.53;5018938;28;19925;-78
2022/03/30 00:19:20;;;;;;;;;;;;;;;11.23;59.88;96799.50;5014178;28;19925;-78
2022/03/30 00:21:48;;;;;;;;;;;;;;;11.08;60.57;96797.47;4998895;28;19991;-78
2022/03/30 00:24:16;;;;;;;;;;;;;;;11.19;60.10;96796.69;4999104;28;19929;-78
2022/03/30 00:26:48;;;;;;;;;;;;;;;11.26;60.13;96794.19;5016272;28;21413;-78
2022/03/30 00:29:16;;;;;;;;;;;;;;;11.00;60.73;96791.81;5014093;28;19933;-78
2022/03/30 00:31:47;;;;;;;;;;;;;;;11.19;60.32;96785.81;5032979;28;19964;-78
2022/03/30 00:34:16;;;;;;;;;;;;;;;11.30;59.77;96791.56;5013756;28;19932;-78
2022/03/30 00:36:46;;;;;;;;;;;;;;;11.33;60.03;96781.94;5017893;28;19964;-78
2022/03/30 00:39:16;;;;;;;;;;;;;;;11.32;60.00;96781.13;5026806;28;19955;-78
2022/03/30 00:41:44;;;;;;;;;;;;;;;11.43;59.61;96776.78;5017715;28;19925;-79
2022/03/30 00:44:14;;;;;;;;;;;;;;;11.37;59.92;96766.50;5022819;28;19925;-79
2022/03/30 00:46:44;;;;;;;;;;;;;;;11.17;60.71;96765.53;5014798;28;19940;-78
2022/03/30 00:49:12;;;;;;;;;;;;;;;11.15;60.59;96763.16;5011189;28;20308;-79
2022/03/30 00:51:40;;;;;;;;;;;;;;;11.18;60.63;96756.22;5016103;28;19925;-78
2022/03/30 00:54:08;;;;;;;;;;;;;;;11.01;60.75;96758.06;5024400;28;20379;-78
2022/03/30 00:56:39;;;;;;;;;;;;;;;11.15;60.51;96752.28;5028113;28;20371;-78
2022/03/30 00:59:32;;;;;;;;;;;;;;;10.84;61.42;96747.47;5029391;28;19933;-78
2022/03/30 01:02:02;;;;;;;;;;;;;;;11.17;60.24;96744.56;5002246;28;19926;-78
2022/03/30 01:04:31;;;;;;;;;;;;;;;11.15;60.76;96746.06;5012532;28;19933;-78
2022/03/30 01:06:59;;;;;;;;;;;;;;;11.12;60.46;96735.88;4993790;28;19972;-78
2022/03/30 01:09:27;;;;;;;;;;;;;;;11.12;60.85;96731.22;5016131;28;20381;-78
2022/03/30 01:11:55;;;;;;;;;;;;;;;10.82;61.62;96733.44;5026855;28;19933;-79
2022/03/30 01:14:27;;;;;;;;;;;;;;;10.67;61.92;96724.03;5006363;28;19926;-78
2022/03/30 01:16:56;;;;;;;;;;;;;;;10.79;61.89;96734.09;5014791;28;19976;-79
2022/03/30 01:19:27;;;;;;;;;;;;;;;11.09;61.10;96731.91;5027731;28;19932;-78
2022/03/30 01:21:57;;;;;;;;;;;;;;;10.56;62.45;96724.84;5025918;28;20343;-78
2022/03/30 01:24:25;;;;;;;;;;;;;;;10.53;62.30;96722.78;5020188;28;19926;-78
2022/03/30 01:26:53;;;;;;;;;;;;;;;10.70;62.31;96725.28;5008124;28;19933;-78
2022/03/30 01:32:26;;;;;;;;;;;;;;;10.37;62.81;96717.25;5021507;28;19925;-77
2022/03/30 01:34:58;;;;;;;;;;;;;;;10.80;62.05;96710.44;5014592;28;20029;-77
2022/03/30 01:37:28;;;;;;;;;;;;;;;10.72;62.36;96704.00;5016494;28;19926;-78
2022/03/30 01:39:58;;;;;;;;;;;;;;;10.87;61.58;96703.31;5025099;28;19925;-79
2022/03/30 01:42:27;;;;;;;;;;;;;;;10.58;62.46;96681.84;5015715;28;19930;-79
2022/03/30 01:44:59;;;;;;;;;;;;;;;10.45;63.15;96687.28;5028279;28;19940;-79
2022/03/30 01:47:27;;;;;;;;;;;;;;;10.66;62.72;96686.38;4997172;28;19969;-79
2022/03/30 01:49:55;;;;;;;;;;;;;;;10.72;62.37;96685.78;4997609;28;19937;-79
2022/03/30 01:52:23;;;;;;;;;;;;;;;10.55;63.19;96686.03;5035358;28;19944;-79
2022/03/30 01:54:52;;;;;;;;;;;;;;;10.77;62.70;96687.47;5026318;28;19925;-78
2022/03/30 01:57:20;;;;;;;;;;;;;;;10.55;63.16;96680.59;5027231;28;19925;-79
2022/03/30 01:59:48;;;;;;;;;;;;;;;10.34;63.96;96669.06;5020897;28;20412;-78
2022/03/30 02:02:16;;;;;;;;;;;;;;;10.34;63.87;96669.88;5021801;28;19929;-78
2022/03/30 02:04:45;;;;;;;;;;;;;;;10.35;64.34;96660.59;5006948;28;19926;-78
2022/03/30 02:07:13;;;;;;;;;;;;;;;10.63;63.47;96665.31;5023320;28;19960;-78
2022/03/30 02:09:40;;;;;;;;;;;;;;;10.41;63.86;96653.78;5022176;28;19925;-78
2022/03/30 02:12:10;;;;;;;;;;;;;;;10.45;64.12;96654.69;5033927;28;19930;-78
2022/03/30 02:14:38;;;;;;;;;;;;;;;10.63;63.31;96663.38;5034311;28;19957;-78
2022/03/30 02:17:06;;;;;;;;;;;;;;;10.72;62.86;96655.91;5029552;28;19991;-78
2022/03/30 02:19:40;;;;;;;;;;;;;;;10.68;62.87;96652.28;5031357;28;19948;-79
2022/03/30 02:22:09;;;;;;;;;;;;;;;10.88;62.43;96639.69;5030569;28;19930;-78
2022/03/30 02:24:37;;;;;;;;;;;;;;;10.82;62.43;96635.63;5038625;28;19955;-79
2022/03/30 02:27:07;;;;;;;;;;;;;;;10.80;62.95;96632.44;5011771;28;19925;-78
2022/03/30 02:29:37;;;;;;;;;;;;;;;10.78;62.92;96628.50;5038837;28;19925;-78
2022/03/30 02:32:13;;;;;;;;;;;;;;;10.74;62.91;96633.81;5038227;28;19925;-78
2022/03/30 02:34:41;;;;;;;;;;;;;;;10.58;63.41;96641.88;5031192;28;19926;-79
2022/03/30 02:37:10;;;;;;;;;;;;;;;10.52;63.26;96637.03;5030001;28;19971;-79
2022/03/30 02:39:38;;;;;;;;;;;;;;;10.55;63.20;96645.31;5025925;28;19929;-78
2022/03/30 02:42:06;;;;;;;;;;;;;;;10.81;62.46;96634.03;5008187;28;19926;-79
2022/03/30 02:44:35;;;;;;;;;;;;;;;10.82;62.48;96630.19;5023460;28;19925;-79
2022/03/30 02:47:05;;;;;;;;;;;;;;;10.79;62.70;96625.44;5028866;28;19926;-78
2022/03/30 02:49:33;;;;;;;;;;;;;;;10.48;63.17;96635.00;4995645;28;19925;-79
2022/03/30 02:52:01;;;;;;;;;;;;;;;10.34;64.05;96629.16;5020205;28;19925;-78
2022/03/30 02:54:29;;;;;;;;;;;;;;;10.54;63.34;96634.75;5022947;28;19967;-79
2022/03/30 02:56:57;;;;;;;;;;;;;;;10.22;64.27;96626.38;5024481;28;19924;-78
2022/03/30 02:59:25;;;;;;;;;;;;;;;10.58;63.35;96622.88;5021202;28;20278;-79
2022/03/30 03:01:54;;;;;;;;;;;;;;;10.54;63.70;96615.75;5023251;28;19948;-78
2022/03/30 03:04:24;;;;;;;;;;;;;;;10.63;63.12;96616.41;5012004;28;19961;-78
2022/03/30 03:06:52;;;;;;;;;;;;;;;10.57;63.12;96613.16;5018533;28;20055;-79
2022/03/30 03:09:20;;;;;;;;;;;;;;;10.65;62.94;96625.81;5029597;28;19987;-79
2022/03/30 03:11:48;;;;;;;;;;;;;;;10.50;63.35;96612.94;5024246;28;20008;-79
2022/03/30 03:14:16;;;;;;;;;;;;;;;10.35;63.73;96609.00;5035268;28;19953;-78
2022/03/30 03:16:44;;;;;;;;;;;;;;;10.76;62.97;96604.41;4992252;28;19926;-78
2022/03/30 03:19:12;;;;;;;;;;;;;;;10.69;62.76;96604.19;5027319;28;19963;-79
2022/03/30 03:21:42;;;;;;;;;;;;;;;10.82;62.66;96603.03;5016960;28;19933;-79
2022/03/30 03:24:10;;;;;;;;;;;;;;;10.73;62.70;96605.88;5005642;28;19925;-78
2022/03/30 03:26:38;;;;;;;;;;;;;;;10.80;62.55;96604.50;5002454;28;19996;-78
2022/03/30 03:29:06;;;;;;;;;;;;;;;10.73;62.55;96607.81;5022906;28;19926;-78
2022/03/30 03:31:34;;;;;;;;;;;;;;;10.46;63.45;96617.47;5015660;28;19987;-78
2022/03/30 03:34:02;;;;;;;;;;;;;;;10.62;63.05;96598.56;5022072;28;19932;-78
2022/03/30 03:36:31;;;;;;;;;;;;;;;10.55;62.74;96606.50;5021095;28;19925;-79
2022/03/30 03:39:00;;;;;;;;;;;;;;;10.48;63.23;96596.97;5026164;28;19925;-78
2022/03/30 03:41:27;;;;;;;;;;;;;;;10.69;62.66;96596.81;5020420;28;19929;-78
2022/03/30 03:43:58;;;;;;;;;;;;;;;10.63;63.00;96594.69;5009351;28;19925;-78
2022/03/30 03:46:26;;;;;;;;;;;;;;;10.72;62.45;96589.94;4997936;28;19926;-79
2022/03/30 03:48:55;;;;;;;;;;;;;;;10.81;62.14;96589.75;5023486;28;20108;-79
2022/03/30 03:51:24;;;;;;;;;;;;;;;10.77;62.20;96584.25;5023483;28;19925;-78
2022/03/30 03:53:52;;;;;;;;;;;;;;;10.49;62.60;96595.88;5029578;28;19925;-78
2022/03/30 03:56:22;;;;;;;;;;;;;;;10.42;63.21;96594.84;5026980;28;20396;-79
2022/03/30 03:58:55;;;;;;;;;;;;;;;10.60;63.09;96587.22;5006435;28;20479;-79
2022/03/30 04:01:23;;;;;;;;;;;;;;;10.61;62.43;96583.41;5005375;28;19929;-79
2022/03/30 04:03:51;;;;;;;;;;;;;;;10.85;61.87;96577.88;5003309;28;19929;-79
2022/03/30 04:06:21;;;;;;;;;;;;;;;10.72;61.93;96577.13;5003639;28;19941;-79
2022/03/30 04:08:49;;;;;;;;;;;;;;;10.71;62.18;96581.00;5020877;28;19980;-79
2022/03/30 04:11:17;;;;;;;;;;;;;;;10.67;62.20;96579.31;5030422;28;19926;-79
2022/03/30 04:13:47;;;;;;;;;;;;;;;10.71;62.35;96581.00;5019761;28;19926;-79
2022/03/30 04:16:16;;;;;;;;;;;;;;;10.44;62.77;96576.31;5031032;28;19929;-79
2022/03/30 04:18:44;;;;;;;;;;;;;;;10.41;62.82;96588.63;5020630;28;20376;-80
2022/03/30 04:21:13;;;;;;;;;;;;;;;10.22;63.98;96580.25;4995753;28;19925;-80
2022/03/30 04:23:44;;;;;;;;;;;;;;;10.41;63.27;96572.34;5027227;28;19933;-79
2022/03/30 04:26:12;;;;;;;;;;;;;;;10.14;64.22;96578.47;5041908;28;19991;-80
2022/03/30 04:28:49;;;;;;;;;;;;;;;10.13;64.59;96576.88;5025577;28;19926;-79
2022/03/30 04:31:17;;;;;;;;;;;;;;;10.24;64.33;96578.03;5034678;28;19988;-79
2022/03/30 04:33:46;;;;;;;;;;;;;;;10.38;63.50;96564.88;5022030;28;19925;-79
2022/03/30 04:36:15;;;;;;;;;;;;;;;10.32;63.70;96568.16;5002205;28;19953;-80
2022/03/30 04:38:46;;;;;;;;;;;;;;;10.36;63.96;96564.44;5033056;28;19926;-79
2022/03/30 04:41:14;;;;;;;;;;;;;;;10.47;63.19;96562.03;5035712;28;19978;-79
2022/03/30 04:43:42;;;;;;;;;;;;;;;10.70;62.53;96554.16;4999921;28;19926;-79
2022/03/30 04:46:13;;;;;;;;;;;;;;;10.71;62.67;96553.81;5015215;28;19929;-79
2022/03/30 05:02:32;;;;;;;;;;;;;;;10.44;63.84;96544.50;5035451;28;20295;-75
2022/03/30 05:05:01;;;;;;;;;;;;;;;10.39;64.04;96542.03;5020357;28;19929;-78
2022/03/30 05:07:29;;;;;;;;;;;;;;;10.28;64.90;96546.38;5036319;28;19925;-78
2022/03/30 05:33:28;;;;;;;;;;;;;;;10.31;65.34;96518.53;5921802;23;19933;-79
2022/03/30 05:35:56;;;;;;;;;;;;;;;10.25;65.73;96511.75;5032724;28;19925;-79
2022/03/30 05:38:28;;;;;;;;;;;;;;;10.26;65.35;96516.03;5026082;28;20439;-76
2022/03/30 05:40:57;;;;;;;;;;;;;;;10.22;65.58;96518.59;5011197;28;19931;-77
2022/03/30 05:43:27;;;;;;;;;;;;;;;10.47;65.08;96516.66;5015502;28;19925;-77
2022/03/30 05:46:20;;;;;;;;;;;;;;;10.72;64.36;96516.59;5019907;28;19975;-77
2022/03/30 05:48:53;;;;;;;;;;;;;;;10.39;65.52;96523.03;5009344;28;19932;-76
2022/03/30 05:51:23;;;;;;;;;;;;;;;10.53;65.25;96519.13;5014564;28;19928;-74
2022/03/30 05:54:17;;;;;;;;;;;;;;;10.48;65.84;96522.88;5026313;28;19925;-78
2022/03/30 05:57:02;;;;;;;;;;;;;;;10.72;64.38;96508.44;5011120;28;19932;-77
2022/03/30 05:59:31;;;;;;;;;;;;;;;10.58;64.78;96505.31;5017270;28;19970;-76
2022/03/30 06:02:27;;;;;;;;;;;;;;;10.74;64.48;96509.66;5019466;28;19931;-77
2022/03/30 06:04:59;;;;;;;;;;;;;;;10.89;63.76;96508.13;5012540;28;19980;-77
2022/03/30 06:07:27;;;;;;;;;;;;;;;10.84;64.00;96513.03;5005762;28;20657;-77
2022/03/30 06:09:56;;;;;;;;;;;;;;;10.93;63.62;96511.72;5013483;28;19993;-74
2022/03/30 06:12:24;;;;;;;;;;;;;;;10.85;63.34;96509.94;5004339;28;19925;-75
2022/03/30 06:14:55;;;;;;;;;;;;;;;10.93;63.59;96514.44;5008495;28;19926;-75
2022/03/30 06:17:23;;;;;;;;;;;;;;;11.14;62.44;96510.72;5017182;28;19952;-75
2022/03/30 06:19:53;;;;;;;;;;;;;;;11.01;63.07;96507.25;5012165;28;20535;-75
2022/03/30 06:22:25;;;;;;;;;;;;;;;10.73;64.66;96505.38;5004514;28;20356;-75
2022/03/30 06:24:54;;;;;;;;;;;;;;;10.73;64.60;96507.28;5008507;28;19933;-76
2022/03/30 06:27:23;;;;;;;;;;;;;;;10.49;64.97;96508.97;5007507;28;19952;-75
2022/03/30 06:29:54;;;;;;;;;;;;;;;10.61;64.82;96505.44;5003232;28;19929;-76
2022/03/30 06:32:24;;;;;;;;;;;;;;;10.90;64.12;96512.41;5000771;28;19926;-75
2022/03/30 06:34:57;;;;;;;;;;;;;;;11.12;63.09;96507.53;5014361;28;19972;-75
2022/03/30 06:37:32;;;;;;;;;;;;;;;11.00;63.65;96505.69;5011934;28;19929;-75
2022/03/30 06:40:03;;;;;;;;;;;;;;;11.16;62.66;96508.44;5005708;28;19929;-75
2022/03/30 06:42:32;;;;;;;;;;;;;;;11.33;62.49;96504.59;5004437;28;19925;-75
2022/03/30 06:45:06;;;;;;;;;;;;;;;11.49;61.18;96500.72;5009413;28;19971;-75
2022/03/30 06:47:35;;;;;;;;;;;;;;;11.29;61.87;96501.78;5021191;28;19930;-75
2022/03/30 06:50:05;;;;;;;;;;;;;;;11.30;60.79;96508.03;5015825;28;20383;-75
2022/03/30 06:52:35;;;;;;;;;;;;;;;11.27;61.34;96504.06;5017453;28;19925;-75
2022/03/30 06:55:05;;;;;;;;;;;;;;;11.08;62.12;96507.47;5019865;28;20019;-76
2022/03/30 06:57:33;;;;;;;;;;;;;;;11.28;61.72;96494.75;5024892;28;19925;-76
2022/03/30 07:02:55;;;;;;;;;;;;;;;11.65;60.34;96498.00;5010697;28;20395;-78
2022/03/30 07:05:23;;;;;;;;;;;;;;;11.66;59.99;96494.13;5012802;28;19933;-78
2022/03/30 07:11:08;;;;;;;;;;;;;;;11.40;60.64;96502.03;5016993;28;19929;-78
2022/03/30 07:13:37;;;;;;;;;;;;;;;11.14;61.08;96494.41;5008048;28;19929;-77
2022/03/30 07:16:09;;;;;;;;;;;;;;;11.13;61.37;96495.53;5007437;28;19925;-77
2022/03/30 07:18:37;;;;;;;;;;;;;;;11.05;62.59;96499.22;5009883;28;19925;-78
2022/03/30 07:21:08;;;;;;;;;;;;;;;11.33;61.47;96496.44;5021216;28;20107;-77
2022/03/30 07:23:38;;;;;;;;;;;;;;;11.17;62.12;96496.41;5003500;28;19976;-78
2022/03/30 07:26:10;;;;;;;;;;;;;;;11.04;62.86;96489.50;5001020;28;19933;-77
2022/03/30 07:28:40;;;;;;;;;;;;;;;10.89;63.17;96499.19;4998907;28;19925;-77
2022/03/30 07:31:13;;;;;;;;;;;;;;;10.68;64.66;96499.41;5004418;28;20486;-77
2022/03/30 07:33:41;;;;;;;;;;;;;;;10.34;64.94;96512.41;5014517;28;19925;-78
2022/03/30 07:36:10;;;;;;;;;;;;;;;10.30;66.43;96514.22;5006619;28;19926;-79
2022/03/30 07:38:42;;;;;;;;;;;;;;;10.33;65.94;96521.66;5020941;28;20015;-78
2022/03/30 07:41:10;;;;;;;;;;;;;;;10.60;65.59;96514.72;5011740;28;19932;-77
2022/03/30 07:43:39;;;;;;;;;;;;;;;10.62;65.67;96512.44;5013124;28;19964;-76
2022/03/30 07:46:13;;;;;;;;;;;;;;;10.39;65.77;96520.31;4999266;28;19925;-76
2022/03/30 07:48:44;;;;;;;;;;;;;;;10.01;67.67;96517.19;5000884;28;19940;-76
2022/03/30 07:51:14;;;;;;;;;;;;;;;10.07;68.49;96515.84;5007827;28;19925;-76
2022/03/30 07:53:44;;;;;;;;;;;;;;;10.16;68.24;96516.47;5009749;28;19939;-76
2022/03/30 07:56:13;;;;;;;;;;;;;;;10.07;67.89;96519.34;5012553;28;19960;-77
2022/03/30 07:58:46;;;;;;;;;;;;;;;10.05;68.44;96526.22;5004508;28;19929;-77
2022/03/30 08:01:16;;;;;;;;;;;;;;;9.85;68.08;96523.28;4997072;28;19983;-77
2022/03/30 08:03:52;;;;;;;;;;;;;;;10.02;68.50;96513.34;5003224;28;19926;-77
2022/03/30 08:06:21;;;;;;;;;;;;;;;10.10;68.61;96512.44;5022995;28;19925;-77
2022/03/30 08:08:54;;;;;;;;;;;;;;;10.22;67.49;96520.53;5004168;28;19926;-77
2022/03/30 08:11:22;;;;;;;;;;;;;;;10.24;66.60;96512.88;5015481;28;19925;-77
2022/03/30 08:13:52;;;;;;;;;;;;;;;10.26;67.42;96516.03;5007075;28;19939;-77
2022/03/30 08:16:21;;;;;;;;;;;;;;;10.52;66.40;96509.41;5032009;28;20015;-77
2022/03/30 08:18:49;;;;;;;;;;;;;;;10.61;66.95;96510.06;5006309;28;19925;-77
2022/03/30 08:24:06;;;;;;;;;;;;;;;10.38;67.46;96507.84;4998692;28;19925;-77
2022/03/30 08:26:37;;;;;;;;;;;;;;;10.26;67.25;96507.91;5016584;28;20013;-77
2022/03/30 08:29:10;;;;;;;;;;;;;;;10.15;67.88;96504.84;5012165;28;20390;-77
2022/03/30 08:31:54;;;;;;;;;;;;;;;10.09;67.66;96502.72;5002262;28;20454;-77
2022/03/30 08:34:23;;;;;;;;;;;;;;;10.12;67.82;96499.28;5016644;28;19926;-77
2022/03/30 08:36:53;;;;;;;;;;;;;;;10.23;67.89;96509.38;5013593;28;19925;-77
2022/03/30 08:39:23;;;;;;;;;;;;;;;10.42;67.17;96500.63;5013742;28;19964;-77
2022/03/30 08:41:52;;;;;;;;;;;;;;;10.59;67.20;96506.88;5005346;28;19980;-77
2022/03/30 08:44:21;;;;;;;;;;;;;;;11.09;63.83;96505.53;5023969;28;19925;-77
2022/03/30 08:46:52;;;;;;;;;;;;;;;10.77;65.87;96508.19;5004058;28;19926;-77
2022/03/30 08:49:22;;;;;;;;;;;;;;;10.54;66.80;96513.34;5002519;28;19931;-77
2022/03/30 08:51:52;;;;;;;;;;;;;;;10.29;67.87;96509.94;5002982;28;19932;-78
2022/03/30 08:54:20;;;;;;;;;;;;;;;10.31;68.43;96504.94;5014745;28;20024;-77
2022/03/30 08:56:53;;;;;;;;;;;;;;;10.86;66.22;96499.88;5006675;28;20371;-77
2022/03/30 08:59:25;;;;;;;;;;;;;;;10.62;67.75;96498.84;5000398;28;19925;-77
2022/03/30 09:01:54;;;;;;;;;;;;;;;10.74;66.12;96500.72;5000338;28;19932;-77
2022/03/30 09:04:23;;;;;;;;;;;;;;;10.18;66.10;96497.94;5006691;28;19925;-77
2022/03/30 09:06:53;;;;;;;;;;;;;;;10.16;68.39;96505.63;5001766;28;20015;-77
2022/03/30 09:09:30;;;;;;;;;;;;;;;9.99;69.37;96501.25;5010443;28;19936;-77
2022/03/30 09:12:26;;;;;;;;;;;;;;;9.93;69.40;96503.41;5030864;28;19954;-77
2022/03/30 09:15:01;;;;;;;;;;;;;;;9.95;68.80;96503.06;5010704;28;19929;-77
2022/03/30 09:17:49;;;;;;;;;;;;;;;9.81;69.47;96505.34;5023691;28;19995;-77
2022/03/30 09:20:19;;;;;;;;;;;;;;;9.75;69.79;96507.50;5000893;28;19968;-78
2022/03/30 09:22:55;;;;;;;;;;;;;;;9.65;70.21;96507.97;5004735;28;19969;-77
2022/03/30 09:25:44;;;;;;;;;;;;;;;9.66;70.45;96504.09;5009978;28;19925;-77
2022/03/30 09:28:15;;;;;;;;;;;;;;;9.76;70.94;96503.66;5007126;28;19968;-77
2022/03/30 09:30:44;;;;;;;;;;;;;;;9.77;71.25;96504.44;5026014;28;19952;-77
2022/03/30 09:33:14;;;;;;;;;;;;;;;9.80;70.50;96510.00;5019505;28;19967;-77
2022/03/30 09:35:42;;;;;;;;;;;;;;;9.79;70.17;96504.88;5018871;28;19925;-77
2022/03/30 09:38:15;;;;;;;;;;;;;;;9.82;69.19;96507.72;5022037;28;20303;-77
2022/03/30 09:40:45;;;;;;;;;;;;;;;9.91;69.56;96497.53;4998929;28;19979;-77
2022/03/30 09:43:16;;;;;;;;;;;;;;;9.95;69.54;96495.72;5020566;28;19932;-77
2022/03/30 09:45:47;;;;;;;;;;;;;;;9.96;70.12;96491.09;5012368;28;19926;-77
2022/03/30 09:48:16;;;;;;;;;;;;;;;9.97;70.53;96493.47;4991126;28;19936;-77
2022/03/30 09:50:46;;;;;;;;;;;;;;;9.91;70.57;96488.63;5005557;28;19926;-77
2022/03/30 09:53:18;;;;;;;;;;;;;;;10.00;69.95;96491.19;4986839;28;19929;-77
2022/03/30 09:55:57;;;;;;;;;;;;;;;9.95;70.73;96484.84;5002097;28;19925;-77
2022/03/30 09:58:28;;;;;;;;;;;;;;;10.32;68.70;96482.09;5027542;28;19926;-77
2022/03/30 10:01:04;;;;;;;;;;;;;;;10.27;69.88;96478.81;5018294;28;19932;-77
2022/03/30 10:03:37;;;;;;;;;;;;;;;9.96;71.19;96470.19;5014886;28;19932;-77
2022/03/30 10:06:10;;;;;;;;;;;;;;;9.87;71.24;96477.66;4992271;28;19972;-77
2022/03/30 10:08:40;;;;;;;;;;;;;;;9.91;71.42;96470.41;5012963;28;19925;-77
2022/03/30 10:11:16;;;;;;;;;;;;;;;9.92;72.11;96466.56;5021458;28;20393;-78
2022/03/30 10:13:53;;;;;;;;;;;;;;;9.85;71.74;96466.34;5008833;28;19961;-78
2022/03/30 10:16:43;;;;;;;;;;;;;;;10.05;71.38;96466.53;5014820;28;19953;-78
2022/03/30 10:19:19;;;;;;;;;;;;;;;10.00;71.26;96453.19;5009110;28;19929;-78
2022/03/30 10:21:49;;;;;;;;;;;;;;;10.16;70.07;96452.13;5007285;28;19925;-78
2022/03/30 10:24:35;;;;;;;;;;;;;;;10.15;70.35;96447.06;5017571;28;19953;-78
2022/03/30 10:27:31;;;;;;;;;;;;;;;10.03;70.35;96447.88;5022722;28;20276;-78
2022/03/30 10:30:02;;;;;;;;;;;;;;;10.22;70.35;96444.53;5005715;28;19976;-78
2022/03/30 10:32:33;;;;;;;;;;;;;;;10.32;69.97;96444.09;5016396;28;19931;-76
2022/03/30 10:35:05;;;;;;;;;;;;;;;10.10;69.31;96444.59;5016469;28;19932;-76
2022/03/30 10:37:38;;;;;;;;;;;;;;;9.86;70.52;96438.09;5017717;28;19924;-78
2022/03/30 10:40:09;;;;;;;;;;;;;;;10.02;70.65;96440.88;5015683;28;19926;-78
2022/03/30 10:43:04;;;;;;;;;;;;;;;10.10;71.28;96436.44;5021293;28;20376;-78
2022/03/30 10:45:44;;;;;;;;;;;;;;;10.09;71.47;96440.31;5023026;28;19925;-77
2022/03/30 10:48:16;;;;;;;;;;;;;;;10.65;70.28;96429.47;4997534;28;19932;-77
2022/03/30 10:50:46;;;;;;;;;;;;;;;10.70;69.42;96426.50;5009919;28;20020;-78
2022/03/30 10:53:33;;;;;;;;;;;;;;;10.50;69.36;96428.31;5031727;28;20303;-76
2022/03/30 10:56:18;;;;;;;;;;;;;;;10.34;70.89;96425.53;5006446;28;19925;-77
2022/03/30 13:55:59;;;;;;;;;;;;;;;10.54;68.76;96277.09;5024407;28;19933;-77
2022/03/30 13:58:53;;;;;;;;;;;;;;;10.67;68.04;96270.47;5034334;28;19925;-76
2022/03/30 14:01:39;;;;;;;;;;;;;;;10.81;67.46;96266.50;5048370;28;19909;-84
2022/03/30 14:36:10;;;;;;;;;;;;;;;9.78;70.98;96251.88;4981942;28;19926;-78
2022/03/30 14:42:56;;;;;;;;;;;;;;;9.57;72.20;96252.06;4995516;28;19925;-76
2022/03/30 15:05:35;;;;;;;;;;;;;;;9.29;73.79;96249.34;4906207;29;20026;-74
2022/03/30 15:29:27;;;;;;;;;;;;;;;8.86;73.99;96250.78;4866237;29;19927;-75
2022/03/30 15:42:44;;;;;;;;;;;;;;;8.52;74.03;96245.81;5014466;28;20023;-75
2022/03/30 15:45:17;;;;;;;;;;;;;;;8.47;73.93;96238.75;5023985;28;19934;-75
2022/03/30 15:47:46;;;;;;;;;;;;;;;8.57;74.56;96242.91;4987074;28;20485;-75
2022/03/30 15:50:18;;;;;;;;;;;;;;;8.48;73.91;96245.72;5002237;28;19910;-79
2022/03/30 15:53:04;;;;;;;;;;;;;;;8.49;74.17;96241.09;5010335;28;19918;-80
2022/03/30 15:55:36;;;;;;;;;;;;;;;8.35;74.82;96247.59;5012012;28;19910;-77
2022/03/30 15:58:04;;;;;;;;;;;;;;;8.71;73.86;96248.75;5009127;28;19926;-72
2022/03/30 16:00:36;;;;;;;;;;;;;;;8.79;72.37;96250.56;4988453;28;19926;-75
2022/03/30 16:03:08;;;;;;;;;;;;;;;8.57;72.95;96256.44;4992450;28;19984;-76
2022/03/30 16:05:39;;;;;;;;;;;;;;;8.54;73.15;96254.41;5026500;28;19917;-78
2022/03/30 16:16:21;;;;;;;;;;;;;;;8.13;74.19;96256.94;4931338;29;19935;-76
2022/03/30 17:16:24;;;;;;;;;;;;;;;7.87;73.63;96262.59;4768963;30;19914;-81
2022/03/30 17:19:28;;;;;;;;;;;;;;;7.60;74.30;96266.69;4795748;29;19957;-79
2022/03/30 17:22:01;;;;;;;;;;;;;;;7.71;73.95;96267.06;4754881;30;19934;-81
2022/03/30 17:24:32;;;;;;;;;;;;;;;7.81;74.07;96272.06;4781849;30;19930;-80
2022/03/30 17:27:06;;;;;;;;;;;;;;;7.59;74.52;96269.72;4778210;30;19921;-80
2022/03/30 17:36:27;;;;;;;;;;;;;;;7.80;74.23;96267.78;4995899;28;19972;-75
